sensor_id;sensor_type;location;lat;lon;timestamp;pressure;altitude;pressure_sealevel;temperature;humidity
6567;BME280;3317;43.994;22.878;2022-12-11T00:02:27;98831.50;;;9.24;86.67
6567;BME280;3317;43.994;22.878;2022-12-11T00:04:54;98818.66;;;9.26;86.27
6567;BME280;3317;43.994;22.878;2022-12-11T00:07:21;98815.31;;;9.24;85.44
6567;BME280;3317;43.994;22.878;2022-12-11T00:09:48;98823.81;;;9.21;85.45
6567;BME280;3317;43.994;22.878;2022-12-11T00:12:15;98835.63;;;9.20;85.59
6567;BME280;3317;43.994;22.878;2022-12-11T00:14:43;98842.72;;;9.21;85.68
6567;BME280;3317;43.994;22.878;2022-12-11T00:17:10;98830.59;;;9.16;85.86
6567;BME280;3317;43.994;22.878;2022-12-11T00:19:37;98820.00;;;9.15;86.43
6567;BME280;3317;43.994;22.878;2022-12-11T00:22:04;98827.72;;;9.18;86.48
6567;BME280;3317;43.994;22.878;2022-12-11T00:24:31;98813.56;;;9.16;87.11
6567;BME280;3317;43.994;22.878;2022-12-11T00:26:58;98818.31;;;9.14;86.96
6567;BME280;3317;43.994;22.878;2022-12-11T00:29:25;98810.22;;;9.14;87.12
6567;BME280;3317;43.994;22.878;2022-12-11T00:31:53;98811.88;;;9.15;87.43
6567;BME280;3317;43.994;22.878;2022-12-11T00:34:20;98796.50;;;9.15;87.39
6567;BME280;3317;43.994;22.878;2022-12-11T00:36:47;98781.13;;;9.16;87.68
6567;BME280;3317;43.994;22.878;2022-12-11T00:39:13;98772.97;;;9.09;88.02
6567;BME280;3317;43.994;22.878;2022-12-11T00:41:40;98769.94;;;9.19;87.63
6567;BME280;3317;43.994;22.878;2022-12-11T00:44:07;98779.72;;;9.20;87.57
6567;BME280;3317;43.994;22.878;2022-12-11T00:46:34;98772.63;;;9.19;87.47
6567;BME280;3317;43.994;22.878;2022-12-11T00:49:02;98766.38;;;9.19;87.83
6567;BME280;3317;43.994;22.878;2022-12-11T00:51:30;98763.03;;;9.16;87.91
6567;BME280;3317;43.994;22.878;2022-12-11T00:53:57;98760.34;;;9.16;88.03
6567;BME280;3317;43.994;22.878;2022-12-11T00:56:24;98752.09;;;9.03;88.27
6567;BME280;3317;43.994;22.878;2022-12-11T00:58:50;98768.66;;;9.15;88.49
6567;BME280;3317;43.994;22.878;2022-12-11T01:01:20;98759.91;;;9.13;88.47
6567;BME280;3317;43.994;22.878;2022-12-11T01:03:48;98744.50;;;9.13;88.71
6567;BME280;3317;43.994;22.878;2022-12-11T01:06:18;98726.97;;;9.02;88.73
6567;BME280;3317;43.994;22.878;2022-12-11T01:08:46;98745.53;;;9.12;88.66
6567;BME280;3317;43.994;22.878;2022-12-11T01:11:15;98725.53;;;9.07;88.62
6567;BME280;3317;43.994;22.878;2022-12-11T01:13:41;98735.38;;;9.14;88.63
6567;BME280;3317;43.994;22.878;2022-12-11T01:16:10;98719.09;;;9.08;88.75
6567;BME280;3317;43.994;22.878;2022-12-11T01:18:37;98730.59;;;9.16;88.55
6567;BME280;3317;43.994;22.878;2022-12-11T01:21:06;98719.28;;;9.06;88.53
6567;BME280;3317;43.994;22.878;2022-12-11T01:23:35;98729.97;;;9.14;88.67
6567;BME280;3317;43.994;22.878;2022-12-11T01:26:07;98729.97;;;9.14;89.05
6567;BME280;3317;43.994;22.878;2022-12-11T01:28:34;98733.72;;;9.13;89.10
6567;BME280;3317;43.994;22.878;2022-12-11T01:31:06;98715.38;;;9.09;88.79
6567;BME280;3317;43.994;22.878;2022-12-11T01:33:33;98733.06;;;9.11;89.00
6567;BME280;3317;43.994;22.878;2022-12-11T01:36:00;98728.94;;;9.15;89.00
6567;BME280;3317;43.994;22.878;2022-12-11T01:38:27;98719.81;;;9.16;88.86
6567;BME280;3317;43.994;22.878;2022-12-11T01:40:55;98721.47;;;9.18;88.91
6567;BME280;3317;43.994;22.878;2022-12-11T01:43:22;98739.34;;;9.19;89.14
6567;BME280;3317;43.994;22.878;2022-12-11T01:45:49;98746.47;;;9.20;89.15
6567;BME280;3317;43.994;22.878;2022-12-11T01:48:19;98738.72;;;9.16;89.32
6567;BME280;3317;43.994;22.878;2022-12-11T01:50:49;98759.69;;;9.14;89.38
6567;BME280;3317;43.994;22.878;2022-12-11T01:53:21;98734.34;;;9.15;89.44
6567;BME280;3317;43.994;22.878;2022-12-11T01:55:50;98732.44;;;9.09;89.15
6567;BME280;3317;43.994;22.878;2022-12-11T01:58:21;98735.38;;;9.14;89.25
6567;BME280;3317;43.994;22.878;2022-12-11T02:00:50;98742.44;;;9.15;89.63
6567;BME280;3317;43.994;22.878;2022-12-11T02:03:19;98760.72;;;9.13;89.73
6567;BME280;3317;43.994;22.878;2022-12-11T02:05:45;98750.94;;;9.12;89.95
6567;BME280;3317;43.994;22.878;2022-12-11T02:08:13;98736.22;;;9.15;90.13
6567;BME280;3317;43.994;22.878;2022-12-11T02:10:50;98724.16;;;9.18;89.75
6567;BME280;3317;43.994;22.878;2022-12-11T02:13:26;98737.06;;;9.15;89.52
6567;BME280;3317;43.994;22.878;2022-12-11T02:16:01;98731.47;;;9.17;89.38
6567;BME280;3317;43.994;22.878;2022-12-11T02:18:34;98732.09;;;9.19;89.49
6567;BME280;3317;43.994;22.878;2022-12-11T02:21:07;98711.31;;;9.20;89.79
6567;BME280;3317;43.994;22.878;2022-12-11T02:23:56;98709.25;;;9.22;89.21
6567;BME280;3317;43.994;22.878;2022-12-11T02:29:20;98692.00;;;9.23;89.14
6567;BME280;3317;43.994;22.878;2022-12-11T02:31:53;98698.44;;;9.22;88.95
6567;BME280;3317;43.994;22.878;2022-12-11T02:34:28;98674.44;;;9.12;89.43
6567;BME280;3317;43.994;22.878;2022-12-11T02:37:01;98706.56;;;9.22;89.59
6567;BME280;3317;43.994;22.878;2022-12-11T02:39:29;98717.16;;;9.23;89.46
6567;BME280;3317;43.994;22.878;2022-12-11T02:41:58;98722.56;;;9.23;89.31
6567;BME280;3317;43.994;22.878;2022-12-11T02:44:29;98720.50;;;9.25;88.58
6567;BME280;3317;43.994;22.878;2022-12-11T02:46:58;98705.13;;;9.26;88.19
6567;BME280;3317;43.994;22.878;2022-12-11T02:49:27;98715.03;;;9.19;88.85
6567;BME280;3317;43.994;22.878;2022-12-11T02:51:56;98741.69;;;9.22;89.39
6567;BME280;3317;43.994;22.878;2022-12-11T02:54:27;98734.63;;;9.21;89.78
6567;BME280;3317;43.994;22.878;2022-12-11T02:56:59;98723.53;;;9.15;90.66
6567;BME280;3317;43.994;22.878;2022-12-11T02:59:31;98697.03;;;9.04;91.34
6567;BME280;3317;43.994;22.878;2022-12-11T03:02:00;98729.56;;;9.18;91.70
6567;BME280;3317;43.994;22.878;2022-12-11T03:04:28;98729.22;;;9.21;90.79
6567;BME280;3317;43.994;22.878;2022-12-11T03:07:00;98705.53;;;9.23;90.49
6567;BME280;3317;43.994;22.878;2022-12-11T03:09:37;98690.81;;;9.04;89.63
6567;BME280;3317;43.994;22.878;2022-12-11T03:12:05;98730.88;;;9.22;89.68
6567;BME280;3317;43.994;22.878;2022-12-11T03:14:33;98731.06;;;9.20;89.53
6567;BME280;3317;43.994;22.878;2022-12-11T03:17:06;98734.22;;;9.24;89.31
6567;BME280;3317;43.994;22.878;2022-12-11T03:19:37;98723.41;;;9.24;89.10
6567;BME280;3317;43.994;22.878;2022-12-11T03:22:09;98720.72;;;9.24;89.26
6567;BME280;3317;43.994;22.878;2022-12-11T03:24:40;98739.41;;;9.25;89.29
6567;BME280;3317;43.994;22.878;2022-12-11T03:27:14;98764.97;;;9.23;89.21
6567;BME280;3317;43.994;22.878;2022-12-11T03:29:50;98790.75;;;9.25;89.58
6567;BME280;3317;43.994;22.878;2022-12-11T03:32:22;98796.16;;;9.25;89.85
6567;BME280;3317;43.994;22.878;2022-12-11T03:34:56;98795.09;;;9.20;89.73
6567;BME280;3317;43.994;22.878;2022-12-11T03:37:27;98805.97;;;9.26;89.82
6567;BME280;3317;43.994;22.878;2022-12-11T03:39:59;98805.97;;;9.26;89.76
6567;BME280;3317;43.994;22.878;2022-12-11T03:42:28;98790.75;;;9.25;90.09
6567;BME280;3317;43.994;22.878;2022-12-11T03:44:58;98789.94;;;9.25;90.38
6567;BME280;3317;43.994;22.878;2022-12-11T03:47:27;98790.75;;;9.25;91.05
6567;BME280;3317;43.994;22.878;2022-12-11T03:49:56;98775.28;;;9.12;90.92
6567;BME280;3317;43.994;22.878;2022-12-11T03:52:25;98790.97;;;9.24;90.82
6567;BME280;3317;43.994;22.878;2022-12-11T03:54:55;98790.13;;;9.23;90.93
6567;BME280;3317;43.994;22.878;2022-12-11T03:57:26;98793.78;;;9.15;90.47
6567;BME280;3317;43.994;22.878;2022-12-11T03:59:56;98791.16;;;9.22;90.32
6567;BME280;3317;43.994;22.878;2022-12-11T04:02:23;98777.66;;;9.22;90.50
6567;BME280;3317;43.994;22.878;2022-12-11T04:04:50;98775.41;;;9.26;90.36
6567;BME280;3317;43.994;22.878;2022-12-11T04:07:17;98780.81;;;9.26;89.69
6567;BME280;3317;43.994;22.878;2022-12-11T04:09:44;98785.34;;;9.25;89.50
6567;BME280;3317;43.994;22.878;2022-12-11T04:12:11;98789.09;;;9.24;89.85
6567;BME280;3317;43.994;22.878;2022-12-11T04:14:38;98803.28;;;9.26;89.98
6567;BME280;3317;43.994;22.878;2022-12-11T04:17:24;98820.31;;;9.27;89.39
6567;BME280;3317;43.994;22.878;2022-12-11T04:20:09;98808.88;;;9.25;88.90
6567;BME280;3317;43.994;22.878;2022-12-11T04:22:53;98808.41;;;9.21;89.02
6567;BME280;3317;43.994;22.878;2022-12-11T04:25:38;98802.81;;;9.23;89.69
6567;BME280;3317;43.994;22.878;2022-12-11T04:28:05;98798.81;;;9.19;89.24
6567;BME280;3317;43.994;22.878;2022-12-11T04:30:32;98797.34;;;9.16;88.97
6567;BME280;3317;43.994;22.878;2022-12-11T04:33:00;98786.47;;;9.09;89.26
6567;BME280;3317;43.994;22.878;2022-12-11T04:35:27;98793.16;;;9.13;89.58
6567;BME280;3317;43.994;22.878;2022-12-11T04:37:54;98801.91;;;9.15;88.95
6567;BME280;3317;43.994;22.878;2022-12-11T04:40:21;98788.59;;;9.14;88.56
6567;BME280;3317;43.994;22.878;2022-12-11T04:42:49;98788.97;;;9.11;88.05
6567;BME280;3317;43.994;22.878;2022-12-11T04:45:16;98794.75;;;9.08;88.37
6567;BME280;3317;43.994;22.878;2022-12-11T04:47:43;98804.75;;;9.07;88.96
6567;BME280;3317;43.994;22.878;2022-12-11T04:50:14;98800.16;;;9.08;88.81
6567;BME280;3317;43.994;22.878;2022-12-11T04:52:41;98790.50;;;8.98;88.83
6567;BME280;3317;43.994;22.878;2022-12-11T04:55:09;98808.00;;;9.02;88.84
6567;BME280;3317;43.994;22.878;2022-12-11T04:57:36;98806.78;;;9.05;89.43
6567;BME280;3317;43.994;22.878;2022-12-11T05:00:04;98811.00;;;8.93;89.07
6567;BME280;3317;43.994;22.878;2022-12-11T05:02:33;98840.78;;;8.99;89.56
6567;BME280;3317;43.994;22.878;2022-12-11T05:05:00;98860.72;;;8.98;89.17
6567;BME280;3317;43.994;22.878;2022-12-11T05:07:29;98876.94;;;8.98;89.93
6567;BME280;3317;43.994;22.878;2022-12-11T05:09:56;98882.56;;;8.97;90.10
6567;BME280;3317;43.994;22.878;2022-12-11T05:12:22;98864.69;;;8.96;89.62
6567;BME280;3317;43.994;22.878;2022-12-11T05:14:51;98888.44;;;9.00;89.63
6567;BME280;3317;43.994;22.878;2022-12-11T05:17:18;98889.63;;;8.98;89.33
6567;BME280;3317;43.994;22.878;2022-12-11T05:19:46;98898.38;;;9.00;89.71
6567;BME280;3317;43.994;22.878;2022-12-11T05:22:13;98894.81;;;8.99;89.75
6567;BME280;3317;43.994;22.878;2022-12-11T05:24:42;98910.22;;;8.99;90.12
6567;BME280;3317;43.994;22.878;2022-12-11T05:27:10;98887.59;;;8.85;90.21
6567;BME280;3317;43.994;22.878;2022-12-11T05:29:37;98901.09;;;9.00;90.55
6567;BME280;3317;43.994;22.878;2022-12-11T05:32:04;98899.22;;;9.00;90.81
6567;BME280;3317;43.994;22.878;2022-12-11T05:34:31;98889.06;;;9.02;90.41
6567;BME280;3317;43.994;22.878;2022-12-11T05:36:57;98889.25;;;9.01;89.81
6567;BME280;3317;43.994;22.878;2022-12-11T05:39:24;98849.25;;;8.75;89.66
6567;BME280;3317;43.994;22.878;2022-12-11T05:41:53;98903.97;;;8.98;89.24
6567;BME280;3317;43.994;22.878;2022-12-11T05:44:19;98917.69;;;8.97;89.14
6567;BME280;3317;43.994;22.878;2022-12-11T05:46:46;98927.63;;;8.96;88.71
6567;BME280;3317;43.994;22.878;2022-12-11T05:49:14;98940.03;;;8.91;88.93
6567;BME280;3317;43.994;22.878;2022-12-11T05:51:41;98949.34;;;8.88;88.88
6567;BME280;3317;43.994;22.878;2022-12-11T05:54:09;98970.75;;;8.90;88.67
6567;BME280;3317;43.994;22.878;2022-12-11T05:56:36;98969.28;;;8.87;88.45
6567;BME280;3317;43.994;22.878;2022-12-11T05:59:05;98965.75;;;8.86;88.11
6567;BME280;3317;43.994;22.878;2022-12-11T06:01:34;98972.34;;;8.84;87.84
6567;BME280;3317;43.994;22.878;2022-12-11T06:04:02;98981.31;;;8.84;87.19
6567;BME280;3317;43.994;22.878;2022-12-11T06:06:30;98985.03;;;8.83;87.21
6567;BME280;3317;43.994;22.878;2022-12-11T06:08:58;98996.00;;;8.82;86.77
6567;BME280;3317;43.994;22.878;2022-12-11T06:11:27;99019.28;;;8.83;86.92
6567;BME280;3317;43.994;22.878;2022-12-11T06:13:54;98995.34;;;8.65;86.66
6567;BME280;3317;43.994;22.878;2022-12-11T06:16:23;99015.56;;;8.84;86.41
6567;BME280;3317;43.994;22.878;2022-12-11T06:18:50;99024.91;;;8.81;86.21
6567;BME280;3317;43.994;22.878;2022-12-11T06:21:19;99013.06;;;8.82;86.07
6567;BME280;3317;43.994;22.878;2022-12-11T06:23:49;99025.06;;;8.80;86.09
6567;BME280;3317;43.994;22.878;2022-12-11T06:26:17;98951.91;;;8.36;85.62
6567;BME280;3317;43.994;22.878;2022-12-11T06:28:45;99017.63;;;8.82;86.01
6567;BME280;3317;43.994;22.878;2022-12-11T06:31:13;99021.88;;;8.76;85.77
6567;BME280;3317;43.994;22.878;2022-12-11T06:33:41;99016.00;;;8.72;85.36
6567;BME280;3317;43.994;22.878;2022-12-11T06:36:10;99014.97;;;8.73;84.93
6567;BME280;3317;43.994;22.878;2022-12-11T06:38:38;99015.66;;;8.76;85.42
6567;BME280;3317;43.994;22.878;2022-12-11T06:41:06;99025.44;;;8.77;85.85
6567;BME280;3317;43.994;22.878;2022-12-11T06:43:35;99028.47;;;8.73;86.08
6567;BME280;3317;43.994;22.878;2022-12-11T06:46:03;99047.22;;;8.75;85.89
6567;BME280;3317;43.994;22.878;2022-12-11T06:48:31;99047.13;;;8.68;85.87
6567;BME280;3317;43.994;22.878;2022-12-11T06:51:04;99064.16;;;8.69;85.36
6567;BME280;3317;43.994;22.878;2022-12-11T06:53:31;99072.94;;;8.71;85.17
6567;BME280;3317;43.994;22.878;2022-12-11T06:56:01;99065.66;;;8.71;84.89
6567;BME280;3317;43.994;22.878;2022-12-11T06:58:28;99073.09;;;8.69;84.55
6567;BME280;3317;43.994;22.878;2022-12-11T07:00:55;99072.28;;;8.69;84.85
6567;BME280;3317;43.994;22.878;2022-12-11T07:03:21;99074.28;;;8.67;84.42
6567;BME280;3317;43.994;22.878;2022-12-11T07:05:48;99075.63;;;8.71;84.63
6567;BME280;3317;43.994;22.878;2022-12-11T07:08:17;99085.09;;;8.67;84.53
6567;BME280;3317;43.994;22.878;2022-12-11T07:10:44;99095.59;;;8.62;83.68
6567;BME280;3317;43.994;22.878;2022-12-11T07:13:10;99097.81;;;8.58;82.26
6567;BME280;3317;43.994;22.878;2022-12-11T07:15:37;99111.53;;;8.56;81.91
6567;BME280;3317;43.994;22.878;2022-12-11T07:18:04;99111.97;;;8.60;81.16
6567;BME280;3317;43.994;22.878;2022-12-11T07:20:31;99120.56;;;8.64;81.64
6567;BME280;3317;43.994;22.878;2022-12-11T07:22:58;99130.72;;;8.62;81.96
6567;BME280;3317;43.994;22.878;2022-12-11T07:25:26;99134.81;;;8.57;81.57
6567;BME280;3317;43.994;22.878;2022-12-11T07:27:53;99138.53;;;8.56;80.71
6567;BME280;3317;43.994;22.878;2022-12-11T07:30:20;99146.63;;;8.56;80.80
6567;BME280;3317;43.994;22.878;2022-12-11T07:32:47;99149.66;;;8.53;80.66
6567;BME280;3317;43.994;22.878;2022-12-11T07:35:14;99147.66;;;8.55;80.39
6567;BME280;3317;43.994;22.878;2022-12-11T07:37:41;99158.09;;;8.58;80.22
6567;BME280;3317;43.994;22.878;2022-12-11T07:40:10;99166.84;;;8.61;80.49
6567;BME280;3317;43.994;22.878;2022-12-11T07:42:39;99167.50;;;8.63;80.70
6567;BME280;3317;43.994;22.878;2022-12-11T07:45:07;99181.47;;;8.66;79.94
6567;BME280;3317;43.994;22.878;2022-12-11T07:47:34;99198.19;;;8.70;79.33
6567;BME280;3317;43.994;22.878;2022-12-11T07:50:01;99201.66;;;8.79;80.43
6567;BME280;3317;43.994;22.878;2022-12-11T07:52:27;99209.72;;;8.87;80.55
6567;BME280;3317;43.994;22.878;2022-12-11T07:54:54;99212.31;;;8.95;80.88
6567;BME280;3317;43.994;22.878;2022-12-11T07:57:21;99213.84;;;8.98;79.92
6567;BME280;3317;43.994;22.878;2022-12-11T07:59:49;99165.03;;;8.76;79.60
6567;BME280;3317;43.994;22.878;2022-12-11T08:02:16;99219.63;;;9.10;79.74
6567;BME280;3317;43.994;22.878;2022-12-11T08:04:43;99216.75;;;9.11;79.60
6567;BME280;3317;43.994;22.878;2022-12-11T08:07:10;99224.81;;;9.20;79.40
6567;BME280;3317;43.994;22.878;2022-12-11T08:09:37;99223.22;;;9.25;80.01
6567;BME280;3317;43.994;22.878;2022-12-11T08:12:05;99224.72;;;9.28;79.72
6567;BME280;3317;43.994;22.878;2022-12-11T08:14:31;99236.97;;;9.39;78.68
6567;BME280;3317;43.994;22.878;2022-12-11T08:17:00;99238.66;;;9.40;78.57
6567;BME280;3317;43.994;22.878;2022-12-11T08:19:27;99240.50;;;9.39;77.46
6567;BME280;3317;43.994;22.878;2022-12-11T08:21:53;99236.19;;;9.30;75.77
6567;BME280;3317;43.994;22.878;2022-12-11T08:24:20;99240.22;;;9.34;74.94
6567;BME280;3317;43.994;22.878;2022-12-11T08:26:47;99245.25;;;9.37;73.77
6567;BME280;3317;43.994;22.878;2022-12-11T08:29:14;99247.97;;;9.37;73.76
6567;BME280;3317;43.994;22.878;2022-12-11T08:31:41;99245.91;;;9.39;73.61
6567;BME280;3317;43.994;22.878;2022-12-11T08:34:09;99258.03;;;9.43;74.10
6567;BME280;3317;43.994;22.878;2022-12-11T08:36:38;99276.13;;;9.43;73.91
6567;BME280;3317;43.994;22.878;2022-12-11T08:39:06;99282.03;;;9.47;74.43
6567;BME280;3317;43.994;22.878;2022-12-11T08:41:33;99294.81;;;9.53;74.72
6567;BME280;3317;43.994;22.878;2022-12-11T08:44:00;99304.59;;;9.54;75.04
6567;BME280;3317;43.994;22.878;2022-12-11T08:46:29;99301.22;;;9.52;73.79
6567;BME280;3317;43.994;22.878;2022-12-11T08:48:57;99303.78;;;9.53;73.42
6567;BME280;3317;43.994;22.878;2022-12-11T08:51:27;99299.66;;;9.57;73.23
6567;BME280;3317;43.994;22.878;2022-12-11T08:53:55;99289.66;;;9.58;73.48
6567;BME280;3317;43.994;22.878;2022-12-11T08:56:23;99291.38;;;9.59;74.32
6567;BME280;3317;43.994;22.878;2022-12-11T08:58:50;99294.09;;;9.59;73.50
6567;BME280;3317;43.994;22.878;2022-12-11T09:01:20;99293.41;;;9.57;73.39
6567;BME280;3317;43.994;22.878;2022-12-11T09:03:47;99293.41;;;9.57;72.48
6567;BME280;3317;43.994;22.878;2022-12-11T09:06:17;99288.56;;;9.52;72.15
6567;BME280;3317;43.994;22.878;2022-12-11T09:08:46;99298.38;;;9.53;71.78
6567;BME280;3317;43.994;22.878;2022-12-11T09:11:17;99191.00;;;8.77;71.00
6567;BME280;3317;43.994;22.878;2022-12-11T09:13:44;99304.84;;;9.44;70.79
6567;BME280;3317;43.994;22.878;2022-12-11T09:16:13;99293.06;;;9.37;70.51
6567;BME280;3317;43.994;22.878;2022-12-11T09:18:41;99285.81;;;9.37;70.64
6567;BME280;3317;43.994;22.878;2022-12-11T09:21:10;99294.56;;;9.39;72.12
6567;BME280;3317;43.994;22.878;2022-12-11T09:23:38;99311.16;;;9.36;72.34
6567;BME280;3317;43.994;22.878;2022-12-11T09:26:11;99308.47;;;9.36;71.91
6567;BME280;3317;43.994;22.878;2022-12-11T09:28:38;99300.53;;;9.35;71.56
6567;BME280;3317;43.994;22.878;2022-12-11T09:31:07;99316.13;;;9.24;70.94
6567;BME280;3317;43.994;22.878;2022-12-11T09:33:35;99323.44;;;9.24;70.59
6567;BME280;3317;43.994;22.878;2022-12-11T09:36:03;99332.56;;;9.23;71.00
6567;BME280;3317;43.994;22.878;2022-12-11T09:38:31;99333.75;;;9.20;70.95
6567;BME280;3317;43.994;22.878;2022-12-11T09:40:59;99338.34;;;9.20;70.75
6567;BME280;3317;43.994;22.878;2022-12-11T09:43:36;99322.44;;;9.16;71.25
6567;BME280;3317;43.994;22.878;2022-12-11T09:46:07;99323.47;;;9.15;71.23
6567;BME280;3317;43.994;22.878;2022-12-11T09:48:37;99315.56;;;9.14;70.55
6567;BME280;3317;43.994;22.878;2022-12-11T09:51:13;99322.16;;;9.11;70.96
6567;BME280;3317;43.994;22.878;2022-12-11T09:53:44;99322.31;;;9.10;70.34
6567;BME280;3317;43.994;22.878;2022-12-11T09:56:16;99315.06;;;9.10;70.72
6567;BME280;3317;43.994;22.878;2022-12-11T09:58:55;99328.22;;;9.13;71.24
6567;BME280;3317;43.994;22.878;2022-12-11T10:01:32;99326.84;;;9.18;71.68
6567;BME280;3317;43.994;22.878;2022-12-11T10:04:17;99336.44;;;9.20;71.17
6567;BME280;3317;43.994;22.878;2022-12-11T10:06:58;99335.91;;;9.25;71.49
6567;BME280;3317;43.994;22.878;2022-12-11T10:09:36;99327.97;;;9.23;71.34
6567;BME280;3317;43.994;22.878;2022-12-11T10:12:14;99321.75;;;9.23;71.12
6567;BME280;3317;43.994;22.878;2022-12-11T10:14:58;99339.66;;;9.24;71.46
6567;BME280;3317;43.994;22.878;2022-12-11T10:17:33;99339.81;;;9.22;71.69
6567;BME280;3317;43.994;22.878;2022-12-11T10:20:09;99333.22;;;9.25;71.55
6567;BME280;3317;43.994;22.878;2022-12-11T10:22:40;99335.91;;;9.25;71.76
6567;BME280;3317;43.994;22.878;2022-12-11T10:25:15;99339.16;;;9.20;71.90
6567;BME280;3317;43.994;22.878;2022-12-11T10:27:44;99332.81;;;9.13;71.28
6567;BME280;3317;43.994;22.878;2022-12-11T10:30:17;99328.38;;;9.12;71.65
6567;BME280;3317;43.994;22.878;2022-12-11T10:32:53;99318.81;;;9.09;72.18
6567;BME280;3317;43.994;22.878;2022-12-11T10:35:30;99324.31;;;9.16;73.02
6567;BME280;3317;43.994;22.878;2022-12-11T10:38:09;99317.28;;;9.07;72.90
6567;BME280;3317;43.994;22.878;2022-12-11T10:40:37;99324.53;;;9.06;72.90
6567;BME280;3317;43.994;22.878;2022-12-11T10:43:05;99320.84;;;9.07;73.26
6567;BME280;3317;43.994;22.878;2022-12-11T10:45:34;99314.75;;;9.05;73.39
6567;BME280;3317;43.994;22.878;2022-12-11T10:48:03;99318.31;;;9.06;73.45
6567;BME280;3317;43.994;22.878;2022-12-11T10:50:30;99318.03;;;9.00;73.40
6567;BME280;3317;43.994;22.878;2022-12-11T10:52:57;99321.25;;;8.96;73.25
6567;BME280;3317;43.994;22.878;2022-12-11T10:55:27;99325.63;;;8.97;73.56
6567;BME280;3317;43.994;22.878;2022-12-11T10:57:57;99330.84;;;8.98;73.73
6567;BME280;3317;43.994;22.878;2022-12-11T11:00:30;99304.78;;;8.82;73.91
6567;BME280;3317;43.994;22.878;2022-12-11T11:02:59;99324.78;;;8.96;73.51
6567;BME280;3317;43.994;22.878;2022-12-11T11:05:30;99298.00;;;8.86;73.87
6567;BME280;3317;43.994;22.878;2022-12-11T11:08:03;99328.81;;;9.00;74.15
6567;BME280;3317;43.994;22.878;2022-12-11T11:10:36;99326.94;;;9.01;73.78
6567;BME280;3317;43.994;22.878;2022-12-11T11:13:03;99325.94;;;9.02;73.56
6567;BME280;3317;43.994;22.878;2022-12-11T11:15:30;99324.91;;;9.03;73.64
6567;BME280;3317;43.994;22.878;2022-12-11T11:18:02;99323.06;;;9.04;73.55
6567;BME280;3317;43.994;22.878;2022-12-11T11:20:35;99331.28;;;9.10;74.34
6567;BME280;3317;43.994;22.878;2022-12-11T11:23:12;99322.41;;;9.25;78.29
6567;BME280;3317;43.994;22.878;2022-12-11T11:25:48;99319.66;;;9.33;77.36
6567;BME280;3317;43.994;22.878;2022-12-11T11:28:18;99310.84;;;9.54;81.95
6567;BME280;3317;43.994;22.878;2022-12-11T11:30:56;99311.63;;;9.63;81.70
6567;BME280;3317;43.994;22.878;2022-12-11T11:33:25;99313.28;;;9.64;78.01
6567;BME280;3317;43.994;22.878;2022-12-11T11:35:55;99323.75;;;9.67;77.12
6567;BME280;3317;43.994;22.878;2022-12-11T11:38:24;99330.00;;;9.68;76.45
6567;BME280;3317;43.994;22.878;2022-12-11T11:40:56;99327.09;;;9.69;74.84
6567;BME280;3317;43.994;22.878;2022-12-11T11:43:33;99325.97;;;9.64;72.76
6567;BME280;3317;43.994;22.878;2022-12-11T11:46:04;99337.03;;;9.54;69.66
6567;BME280;3317;43.994;22.878;2022-12-11T11:48:42;99333.84;;;9.50;68.37
6567;BME280;3317;43.994;22.878;2022-12-11T11:51:13;99326.75;;;9.49;68.62
6567;BME280;3317;43.994;22.878;2022-12-11T11:53:44;99331.88;;;9.44;67.54
6567;BME280;3317;43.994;22.878;2022-12-11T11:56:20;99328.34;;;9.43;66.72
6567;BME280;3317;43.994;22.878;2022-12-11T11:58:54;99328.41;;;9.35;66.59
6567;BME280;3317;43.994;22.878;2022-12-11T12:01:24;99339.88;;;9.37;66.51
6567;BME280;3317;43.994;22.878;2022-12-11T12:03:52;99341.63;;;9.30;65.89
6567;BME280;3317;43.994;22.878;2022-12-11T12:06:29;99339.28;;;9.27;65.56
6567;BME280;3317;43.994;22.878;2022-12-11T12:09:04;99347.75;;;9.24;65.81
6567;BME280;3317;43.994;22.878;2022-12-11T12:11:40;99347.09;;;9.22;65.70
6567;BME280;3317;43.994;22.878;2022-12-11T12:14:14;99344.72;;;9.19;66.29
6567;BME280;3317;43.994;22.878;2022-12-11T12:16:50;99350.09;;;9.27;66.82
6567;BME280;3317;43.994;22.878;2022-12-11T12:19:45;99344.31;;;9.30;67.08
6567;BME280;3317;43.994;22.878;2022-12-11T12:22:31;99351.13;;;9.26;66.98
6567;BME280;3317;43.994;22.878;2022-12-11T12:25:09;99345.41;;;9.21;65.88
6567;BME280;3317;43.994;22.878;2022-12-11T12:27:45;99361.63;;;9.21;65.81
6567;BME280;3317;43.994;22.878;2022-12-11T12:30:16;99363.66;;;9.19;66.15
6567;BME280;3317;43.994;22.878;2022-12-11T12:32:56;99367.03;;;9.21;66.31
6567;BME280;3317;43.994;22.878;2022-12-11T12:35:34;99361.31;;;9.15;65.56
6567;BME280;3317;43.994;22.878;2022-12-11T12:38:07;99358.59;;;9.15;65.13
6567;BME280;3317;43.994;22.878;2022-12-11T12:40:42;99356.31;;;9.04;64.50
6567;BME280;3317;43.994;22.878;2022-12-11T12:43:33;99359.50;;;9.08;64.04
6567;BME280;3317;43.994;22.878;2022-12-11T12:46:08;99362.06;;;9.01;63.93
6567;BME280;3317;43.994;22.878;2022-12-11T12:48:38;99368.84;;;8.97;63.44
6567;BME280;3317;43.994;22.878;2022-12-11T12:51:08;99374.28;;;8.88;63.85
6567;BME280;3317;43.994;22.878;2022-12-11T12:53:36;99382.09;;;8.83;63.32
6567;BME280;3317;43.994;22.878;2022-12-11T12:56:05;99382.09;;;8.83;63.96
6567;BME280;3317;43.994;22.878;2022-12-11T12:58:42;99385.97;;;8.81;64.47
6567;BME280;3317;43.994;22.878;2022-12-11T13:01:14;99395.63;;;8.75;64.26
6567;BME280;3317;43.994;22.878;2022-12-11T13:03:53;99399.34;;;8.74;64.79
6567;BME280;3317;43.994;22.878;2022-12-11T13:06:33;99396.81;;;8.72;65.42
6567;BME280;3317;43.994;22.878;2022-12-11T13:09:20;99404.09;;;8.72;66.04
6567;BME280;3317;43.994;22.878;2022-12-11T13:11:49;99393.31;;;8.64;66.40
6567;BME280;3317;43.994;22.878;2022-12-11T13:14:25;99395.00;;;8.65;66.96
6567;BME280;3317;43.994;22.878;2022-12-11T13:17:05;99411.34;;;8.71;67.28
6567;BME280;3317;43.994;22.878;2022-12-11T13:19:33;99410.88;;;8.68;67.11
6567;BME280;3317;43.994;22.878;2022-12-11T13:22:16;99413.72;;;8.66;67.04
6567;BME280;3317;43.994;22.878;2022-12-11T13:24:48;99422.00;;;8.65;67.18
6567;BME280;3317;43.994;22.878;2022-12-11T13:27:25;99422.19;;;8.63;67.78
6567;BME280;3317;43.994;22.878;2022-12-11T13:30:04;99430.44;;;8.62;67.83
6567;BME280;3317;43.994;22.878;2022-12-11T13:32:31;99432.66;;;8.58;68.06
6567;BME280;3317;43.994;22.878;2022-12-11T13:35:03;99437.53;;;8.54;68.22
6567;BME280;3317;43.994;22.878;2022-12-11T13:37:37;99439.91;;;8.49;68.73
6567;BME280;3317;43.994;22.878;2022-12-11T13:40:08;99447.34;;;8.47;68.86
6567;BME280;3317;43.994;22.878;2022-12-11T13:42:47;99452.22;;;8.43;68.63